sensor_id;sensor_type;location;lat;lon;timestamp;temperature;humidity
54272;DHT22;40184;53.362;5.216;2023-04-19T00:01:38;9.30;99.90
54272;DHT22;40184;53.362;5.216;2023-04-19T00:04:04;9.30;99.90
54272;DHT22;40184;53.362;5.216;2023-04-19T00:06:29;9.20;99.90
54272;DHT22;40184;53.362;5.216;2023-04-19T00:08:56;9.20;99.90
54272;DHT22;40184;53.362;5.216;2023-04-19T00:11:23;9.20;99.90
54272;DHT22;40184;53.362;5.216;2023-04-19T00:13:49;9.30;99.90
54272;DHT22;40184;53.362;5.216;2023-04-19T00:16:15;9.30;99.90
54272;DHT22;40184;53.362;5.216;2023-04-19T00:18:41;9.30;99.90
54272;DHT22;40184;53.362;5.216;2023-04-19T00:21:07;9.30;99.90
54272;DHT22;40184;53.362;5.216;2023-04-19T00:23:33;9.20;99.90
54272;DHT22;40184;53.362;5.216;2023-04-19T00:26:02;9.10;99.90
54272;DHT22;40184;53.362;5.216;2023-04-19T00:28:28;9.10;99.90
54272;DHT22;40184;53.362;5.216;2023-04-19T00:30:54;9.10;99.90
54272;DHT22;40184;53.362;5.216;2023-04-19T00:33:19;9.10;99.90
54272;DHT22;40184;53.362;5.216;2023-04-19T00:35:45;9.10;99.90
54272;DHT22;40184;53.362;5.216;2023-04-19T00:38:11;9.10;99.90
54272;DHT22;40184;53.362;5.216;2023-04-19T00:40:37;9.10;99.90
54272;DHT22;40184;53.362;5.216;2023-04-19T00:43:02;9.20;99.90
54272;DHT22;40184;53.362;5.216;2023-04-19T00:45:28;9.20;99.90
54272;DHT22;40184;53.362;5.216;2023-04-19T00:47:54;9.30;99.90
54272;DHT22;40184;53.362;5.216;2023-04-19T00:50:20;9.30;99.90
54272;DHT22;40184;53.362;5.216;2023-04-19T00:52:47;9.30;99.90
54272;DHT22;40184;53.362;5.216;2023-04-19T00:55:13;9.40;99.90
54272;DHT22;40184;53.362;5.216;2023-04-19T00:57:39;9.40;99.90
54272;DHT22;40184;53.362;5.216;2023-04-19T01:00:05;9.40;99.90
54272;DHT22;40184;53.362;5.216;2023-04-19T01:02:33;9.40;99.90
54272;DHT22;40184;53.362;5.216;2023-04-19T01:04:59;9.40;99.90
54272;DHT22;40184;53.362;5.216;2023-04-19T01:07:24;9.30;99.90
54272;DHT22;40184;53.362;5.216;2023-04-19T01:09:50;9.30;99.90
54272;DHT22;40184;53.362;5.216;2023-04-19T01:12:16;9.30;99.90
54272;DHT22;40184;53.362;5.216;2023-04-19T01:14:42;9.30;99.90
54272;DHT22;40184;53.362;5.216;2023-04-19T01:17:08;9.20;99.90
54272;DHT22;40184;53.362;5.216;2023-04-19T01:19:35;9.20;99.90
54272;DHT22;40184;53.362;5.216;2023-04-19T01:22:01;9.20;99.90
54272;DHT22;40184;53.362;5.216;2023-04-19T01:24:29;9.20;99.90
54272;DHT22;40184;53.362;5.216;2023-04-19T01:26:54;9.10;99.90
54272;DHT22;40184;53.362;5.216;2023-04-19T01:29:20;9.10;99.90
54272;DHT22;40184;53.362;5.216;2023-04-19T01:31:47;9.00;99.90
54272;DHT22;40184;53.362;5.216;2023-04-19T01:34:18;9.00;99.90
54272;DHT22;40184;53.362;5.216;2023-04-19T01:36:43;9.00;99.90
54272;DHT22;40184;53.362;5.216;2023-04-19T01:39:09;9.00;99.90
54272;DHT22;40184;53.362;5.216;2023-04-19T01:41:35;8.90;99.90
54272;DHT22;40184;53.362;5.216;2023-04-19T01:44:01;8.90;99.90
54272;DHT22;40184;53.362;5.216;2023-04-19T01:46:26;9.00;99.90
54272;DHT22;40184;53.362;5.216;2023-04-19T01:48:52;9.00;99.90
54272;DHT22;40184;53.362;5.216;2023-04-19T01:51:18;9.00;99.90
54272;DHT22;40184;53.362;5.216;2023-04-19T01:53:46;9.00;99.90
54272;DHT22;40184;53.362;5.216;2023-04-19T01:56:17;8.90;99.90
54272;DHT22;40184;53.362;5.216;2023-04-19T01:58:42;8.90;99.90
54272;DHT22;40184;53.362;5.216;2023-04-19T02:01:08;8.80;99.90
54272;DHT22;40184;53.362;5.216;2023-04-19T02:03:37;8.80;99.90
54272;DHT22;40184;53.362;5.216;2023-04-19T02:06:03;8.80;99.90
54272;DHT22;40184;53.362;5.216;2023-04-19T02:08:28;8.80;99.90
54272;DHT22;40184;53.362;5.216;2023-04-19T02:10:54;8.80;99.90
54272;DHT22;40184;53.362;5.216;2023-04-19T02:13:20;8.70;99.90
54272;DHT22;40184;53.362;5.216;2023-04-19T02:15:46;8.70;99.90
54272;DHT22;40184;53.362;5.216;2023-04-19T02:18:11;8.70;99.90
54272;DHT22;40184;53.362;5.216;2023-04-19T02:20:38;8.60;99.90
54272;DHT22;40184;53.362;5.216;2023-04-19T02:23:03;8.60;99.90
54272;DHT22;40184;53.362;5.216;2023-04-19T02:25:29;8.60;99.90
54272;DHT22;40184;53.362;5.216;2023-04-19T02:27:55;8.60;99.90
54272;DHT22;40184;53.362;5.216;2023-04-19T02:30:21;8.50;99.90
54272;DHT22;40184;53.362;5.216;2023-04-19T02:32:48;8.60;99.90
54272;DHT22;40184;53.362;5.216;2023-04-19T02:35:13;8.50;99.90
54272;DHT22;40184;53.362;5.216;2023-04-19T02:37:39;8.50;99.90
54272;DHT22;40184;53.362;5.216;2023-04-19T02:40:05;8.50;99.90
54272;DHT22;40184;53.362;5.216;2023-04-19T02:42:32;8.50;99.90
54272;DHT22;40184;53.362;5.216;2023-04-19T02:44:57;8.40;99.90
54272;DHT22;40184;53.362;5.216;2023-04-19T02:47:23;8.40;99.90
54272;DHT22;40184;53.362;5.216;2023-04-19T02:49:49;8.40;99.90
54272;DHT22;40184;53.362;5.216;2023-04-19T02:52:14;8.30;99.90
54272;DHT22;40184;53.362;5.216;2023-04-19T02:54:40;8.30;99.90
54272;DHT22;40184;53.362;5.216;2023-04-19T02:57:05;8.30;99.90
54272;DHT22;40184;53.362;5.216;2023-04-19T02:59:31;8.30;99.90
54272;DHT22;40184;53.362;5.216;2023-04-19T03:01:57;8.20;99.90
54272;DHT22;40184;53.362;5.216;2023-04-19T03:04:22;8.20;99.90
54272;DHT22;40184;53.362;5.216;2023-04-19T03:06:48;8.10;99.90
54272;DHT22;40184;53.362;5.216;2023-04-19T03:09:13;8.10;99.90
54272;DHT22;40184;53.362;5.216;2023-04-19T03:11:39;8.10;99.90
54272;DHT22;40184;53.362;5.216;2023-04-19T03:14:05;8.10;99.90
54272;DHT22;40184;53.362;5.216;2023-04-19T03:16:31;8.10;99.90
54272;DHT22;40184;53.362;5.216;2023-04-19T03:18:56;8.10;99.90
54272;DHT22;40184;53.362;5.216;2023-04-19T03:21:22;8.10;99.90
54272;DHT22;40184;53.362;5.216;2023-04-19T03:23:52;8.10;99.90
54272;DHT22;40184;53.362;5.216;2023-04-19T03:26:17;8.10;99.90
54272;DHT22;40184;53.362;5.216;2023-04-19T03:28:43;8.10;99.90
54272;DHT22;40184;53.362;5.216;2023-04-19T03:31:09;8.10;99.90
54272;DHT22;40184;53.362;5.216;2023-04-19T03:33:34;8.20;99.90
54272;DHT22;40184;53.362;5.216;2023-04-19T03:36:00;8.10;99.90
54272;DHT22;40184;53.362;5.216;2023-04-19T03:38:26;8.20;99.90
54272;DHT22;40184;53.362;5.216;2023-04-19T03:40:51;8.10;99.90
54272;DHT22;40184;53.362;5.216;2023-04-19T03:43:17;8.10;99.90
54272;DHT22;40184;53.362;5.216;2023-04-19T03:45:43;8.10;99.90
54272;DHT22;40184;53.362;5.216;2023-04-19T03:48:08;8.10;99.90
54272;DHT22;40184;53.362;5.216;2023-04-19T03:50:34;8.10;99.90
54272;DHT22;40184;53.362;5.216;2023-04-19T03:53:02;8.10;99.90
54272;DHT22;40184;53.362;5.216;2023-04-19T03:55:27;8.10;99.90
54272;DHT22;40184;53.362;5.216;2023-04-19T03:57:53;8.10;99.90
54272;DHT22;40184;53.362;5.216;2023-04-19T04:00:19;8.10;99.90
54272;DHT22;40184;53.362;5.216;2023-04-19T04:02:44;8.10;99.90
54272;DHT22;40184;53.362;5.216;2023-04-19T04:05:10;8.20;99.90
54272;DHT22;40184;53.362;5.216;2023-04-19T04:07:36;8.20;99.90
54272;DHT22;40184;53.362;5.216;2023-04-19T04:10:01;8.20;99.90
54272;DHT22;40184;53.362;5.216;2023-04-19T04:12:27;8.20;99.90
54272;DHT22;40184;53.362;5.216;2023-04-19T04:14:53;8.10;99.90
54272;DHT22;40184;53.362;5.216;2023-04-19T04:17:18;8.00;99.90
54272;DHT22;40184;53.362;5.216;2023-04-19T04:19:44;7.90;99.90
54272;DHT22;40184;53.362;5.216;2023-04-19T04:22:10;7.90;99.90
54272;DHT22;40184;53.362;5.216;2023-04-19T04:24:39;7.90;99.90
54272;DHT22;40184;53.362;5.216;2023-04-19T04:27:09;7.80;99.90
54272;DHT22;40184;53.362;5.216;2023-04-19T04:29:38;7.80;99.90
54272;DHT22;40184;53.362;5.216;2023-04-19T04:32:06;7.80;99.90
54272;DHT22;40184;53.362;5.216;2023-04-19T04:34:35;7.80;99.90
54272;DHT22;40184;53.362;5.216;2023-04-19T04:37:02;7.80;99.90
54272;DHT22;40184;53.362;5.216;2023-04-19T04:39:28;7.80;99.90
54272;DHT22;40184;53.362;5.216;2023-04-19T04:41:54;7.70;99.90
54272;DHT22;40184;53.362;5.216;2023-04-19T04:44:22;7.70;99.90
54272;DHT22;40184;53.362;5.216;2023-04-19T04:46:48;7.60;99.90
54272;DHT22;40184;53.362;5.216;2023-04-19T04:49:13;7.50;99.90
54272;DHT22;40184;53.362;5.216;2023-04-19T04:51:39;7.50;99.90
54272;DHT22;40184;53.362;5.216;2023-04-19T04:54:05;7.50;99.90
54272;DHT22;40184;53.362;5.216;2023-04-19T04:56:30;7.50;99.90
54272;DHT22;40184;53.362;5.216;2023-04-19T04:58:56;7.50;99.90
54272;DHT22;40184;53.362;5.216;2023-04-19T05:01:22;7.50;99.90
54272;DHT22;40184;53.362;5.216;2023-04-19T05:03:49;7.60;99.90
54272;DHT22;40184;53.362;5.216;2023-04-19T05:06:14;7.60;99.90
54272;DHT22;40184;53.362;5.216;2023-04-19T05:08:40;7.60;99.90
54272;DHT22;40184;53.362;5.216;2023-04-19T05:11:06;7.60;99.90
54272;DHT22;40184;53.362;5.216;2023-04-19T05:13:33;7.60;99.90
54272;DHT22;40184;53.362;5.216;2023-04-19T05:15:58;7.60;99.90
54272;DHT22;40184;53.362;5.216;2023-04-19T05:18:24;7.70;99.90
54272;DHT22;40184;53.362;5.216;2023-04-19T05:20:50;7.80;99.90
54272;DHT22;40184;53.362;5.216;2023-04-19T05:23:15;7.70;99.90
54272;DHT22;40184;53.362;5.216;2023-04-19T05:25:41;7.80;99.90
54272;DHT22;40184;53.362;5.216;2023-04-19T05:28:07;7.90;99.90
54272;DHT22;40184;53.362;5.216;2023-04-19T05:30:32;8.00;99.90
54272;DHT22;40184;53.362;5.216;2023-04-19T05:32:58;8.10;99.90
54272;DHT22;40184;53.362;5.216;2023-04-19T05:35:24;8.20;99.90
54272;DHT22;40184;53.362;5.216;2023-04-19T05:37:50;8.30;99.90
54272;DHT22;40184;53.362;5.216;2023-04-19T05:40:16;8.50;99.90
54272;DHT22;40184;53.362;5.216;2023-04-19T05:42:41;8.50;99.90
54272;DHT22;40184;53.362;5.216;2023-04-19T05:45:08;8.60;99.90
54272;DHT22;40184;53.362;5.216;2023-04-19T05:47:34;8.60;99.90
54272;DHT22;40184;53.362;5.216;2023-04-19T05:49:59;8.70;99.90
54272;DHT22;40184;53.362;5.216;2023-04-19T05:52:25;8.90;99.90
54272;DHT22;40184;53.362;5.216;2023-04-19T05:54:51;8.90;99.90
54272;DHT22;40184;53.362;5.216;2023-04-19T05:57:16;9.00;99.90
54272;DHT22;40184;53.362;5.216;2023-04-19T05:59:42;9.00;99.90
54272;DHT22;40184;53.362;5.216;2023-04-19T06:02:08;9.10;99.90
54272;DHT22;40184;53.362;5.216;2023-04-19T06:04:34;9.10;99.90
54272;DHT22;40184;53.362;5.216;2023-04-19T06:06:59;9.10;99.90
54272;DHT22;40184;53.362;5.216;2023-04-19T06:09:25;9.10;99.90
54272;DHT22;40184;53.362;5.216;2023-04-19T06:11:51;9.10;99.90
54272;DHT22;40184;53.362;5.216;2023-04-19T06:14:19;9.10;99.90
54272;DHT22;40184;53.362;5.216;2023-04-19T06:16:44;9.10;99.90
54272;DHT22;40184;53.362;5.216;2023-04-19T06:19:10;9.20;99.90
54272;DHT22;40184;53.362;5.216;2023-04-19T06:21:36;9.20;99.90
54272;DHT22;40184;53.362;5.216;2023-04-19T06:24:01;9.10;99.90
54272;DHT22;40184;53.362;5.216;2023-04-19T06:26:27;9.20;99.90
54272;DHT22;40184;53.362;5.216;2023-04-19T06:28:53;9.20;99.90
54272;DHT22;40184;53.362;5.216;2023-04-19T06:31:19;9.30;99.90
54272;DHT22;40184;53.362;5.216;2023-04-19T06:33:45;9.30;99.90
54272;DHT22;40184;53.362;5.216;2023-04-19T06:36:11;9.30;99.90
54272;DHT22;40184;53.362;5.216;2023-04-19T06:38:37;9.30;99.90
54272;DHT22;40184;53.362;5.216;2023-04-19T06:41:12;9.40;99.90
54272;DHT22;40184;53.362;5.216;2023-04-19T06:43:37;9.50;99.90
54272;DHT22;40184;53.362;5.216;2023-04-19T06:46:07;9.60;99.90
54272;DHT22;40184;53.362;5.216;2023-04-19T06:48:34;9.60;99.90
54272;DHT22;40184;53.362;5.216;2023-04-19T06:51:00;9.60;99.90
54272;DHT22;40184;53.362;5.216;2023-04-19T06:53:26;9.60;99.90
54272;DHT22;40184;53.362;5.216;2023-04-19T06:56:00;9.70;99.90
54272;DHT22;40184;53.362;5.216;2023-04-19T06:58:26;9.70;99.90
54272;DHT22;40184;53.362;5.216;2023-04-19T07:00:52;9.80;99.90
54272;DHT22;40184;53.362;5.216;2023-04-19T07:03:18;10.00;99.90
54272;DHT22;40184;53.362;5.216;2023-04-19T07:05:44;10.00;99.90
54272;DHT22;40184;53.362;5.216;2023-04-19T07:08:09;10.20;99.90
54272;DHT22;40184;53.362;5.216;2023-04-19T07:10:35;10.20;99.90
54272;DHT22;40184;53.362;5.216;2023-04-19T07:13:01;10.40;99.90
54272;DHT22;40184;53.362;5.216;2023-04-19T07:15:26;10.40;99.90
54272;DHT22;40184;53.362;5.216;2023-04-19T07:17:52;10.40;99.90
54272;DHT22;40184;53.362;5.216;2023-04-19T07:20:17;10.30;99.90
54272;DHT22;40184;53.362;5.216;2023-04-19T07:22:43;10.50;99.90
54272;DHT22;40184;53.362;5.216;2023-04-19T07:25:09;10.60;99.90
54272;DHT22;40184;53.362;5.216;2023-04-19T07:27:35;10.70;99.90
54272;DHT22;40184;53.362;5.216;2023-04-19T07:30:00;10.70;99.90
54272;DHT22;40184;53.362;5.216;2023-04-19T07:32:26;10.80;99.90
54272;DHT22;40184;53.362;5.216;2023-04-19T07:34:52;10.60;99.90
54272;DHT22;40184;53.362;5.216;2023-04-19T07:37:18;10.80;99.90
54272;DHT22;40184;53.362;5.216;2023-04-19T07:39:44;10.80;99.90
54272;DHT22;40184;53.362;5.216;2023-04-19T07:42:10;10.80;99.90
54272;DHT22;40184;53.362;5.216;2023-04-19T07:44:36;10.90;99.90
54272;DHT22;40184;53.362;5.216;2023-04-19T07:47:03;10.70;99.90
54272;DHT22;40184;53.362;5.216;2023-04-19T07:49:30;10.60;99.90
54272;DHT22;40184;53.362;5.216;2023-04-19T07:52:01;10.60;99.90
54272;DHT22;40184;53.362;5.216;2023-04-19T07:54:27;10.80;99.90
54272;DHT22;40184;53.362;5.216;2023-04-19T07:56:53;10.80;99.90
54272;DHT22;40184;53.362;5.216;2023-04-19T07:59:19;10.80;99.90
54272;DHT22;40184;53.362;5.216;2023-04-19T08:01:45;10.80;99.90
54272;DHT22;40184;53.362;5.216;2023-04-19T08:04:10;10.80;99.90
54272;DHT22;40184;53.362;5.216;2023-04-19T08:06:37;10.90;99.90
54272;DHT22;40184;53.362;5.216;2023-04-19T08:09:03;10.90;99.90
54272;DHT22;40184;53.362;5.216;2023-04-19T08:11:30;11.10;99.90
54272;DHT22;40184;53.362;5.216;2023-04-19T08:13:55;10.90;99.90
54272;DHT22;40184;53.362;5.216;2023-04-19T08:16:21;10.90;99.90
54272;DHT22;40184;53.362;5.216;2023-04-19T08:18:47;11.00;99.90
54272;DHT22;40184;53.362;5.216;2023-04-19T08:21:16;10.90;99.90
54272;DHT22;40184;53.362;5.216;2023-04-19T08:23:42;11.00;99.90
54272;DHT22;40184;53.362;5.216;2023-04-19T08:26:07;11.00;99.90
54272;DHT22;40184;53.362;5.216;2023-04-19T08:28:33;11.00;99.90
54272;DHT22;40184;53.362;5.216;2023-04-19T08:30:59;11.00;99.90
54272;DHT22;40184;53.362;5.216;2023-04-19T08:33:25;11.10;99.90
54272;DHT22;40184;53.362;5.216;2023-04-19T08:35:50;11.10;99.90
54272;DHT22;40184;53.362;5.216;2023-04-19T08:38:16;11.00;99.90
54272;DHT22;40184;53.362;5.216;2023-04-19T08:40:46;11.10;99.90
54272;DHT22;40184;53.362;5.216;2023-04-19T08:43:16;11.20;99.90
54272;DHT22;40184;53.362;5.216;2023-04-19T08:45:42;11.30;99.90
54272;DHT22;40184;53.362;5.216;2023-04-19T08:48:10;11.10;99.90
54272;DHT22;40184;53.362;5.216;2023-04-19T08:50:40;11.30;99.90
54272;DHT22;40184;53.362;5.216;2023-04-19T08:53:08;11.20;99.90
54272;DHT22;40184;53.362;5.216;2023-04-19T08:55:34;11.30;99.90
54272;DHT22;40184;53.362;5.216;2023-04-19T08:58:03;11.30;99.90
54272;DHT22;40184;53.362;5.216;2023-04-19T09:00:31;11.50;99.90
54272;DHT22;40184;53.362;5.216;2023-04-19T09:02:57;11.40;99.90
54272;DHT22;40184;53.362;5.216;2023-04-19T09:05:23;11.50;99.90
54272;DHT22;40184;53.362;5.216;2023-04-19T09:07:49;11.40;99.90
54272;DHT22;40184;53.362;5.216;2023-04-19T09:10:17;11.50;99.90
54272;DHT22;40184;53.362;5.216;2023-04-19T09:13:01;11.40;99.90
54272;DHT22;40184;53.362;5.216;2023-04-19T09:15:39;11.40;99.90
54272;DHT22;40184;53.362;5.216;2023-04-19T09:18:06;11.60;99.90
54272;DHT22;40184;53.362;5.216;2023-04-19T09:20:38;11.60;99.90
54272;DHT22;40184;53.362;5.216;2023-04-19T09:23:06;11.70;99.90
54272;DHT22;40184;53.362;5.216;2023-04-19T09:25:32;11.80;99.90
54272;DHT22;40184;53.362;5.216;2023-04-19T09:30:36;12.00;99.90
54272;DHT22;40184;53.362;5.216;2023-04-19T09:33:03;11.90;99.90
54272;DHT22;40184;53.362;5.216;2023-04-19T09:35:45;12.00;99.90
54272;DHT22;40184;53.362;5.216;2023-04-19T09:38:13;11.90;99.90
54272;DHT22;40184;53.362;5.216;2023-04-19T09:40:39;12.10;99.90
54272;DHT22;40184;53.362;5.216;2023-04-19T09:43:06;12.10;99.90
54272;DHT22;40184;53.362;5.216;2023-04-19T09:45:44;12.20;99.90
54272;DHT22;40184;53.362;5.216;2023-04-19T09:48:11;12.20;99.90
54272;DHT22;40184;53.362;5.216;2023-04-19T09:53:20;12.20;99.90
54272;DHT22;40184;53.362;5.216;2023-04-19T09:55:46;12.30;99.90
54272;DHT22;40184;53.362;5.216;2023-04-19T09:58:16;12.30;99.90
54272;DHT22;40184;53.362;5.216;2023-04-19T10:00:46;12.30;99.90
54272;DHT22;40184;53.362;5.216;2023-04-19T10:03:14;12.50;99.90
54272;DHT22;40184;53.362;5.216;2023-04-19T10:05:41;12.40;99.90
54272;DHT22;40184;53.362;5.216;2023-04-19T10:08:08;12.50;99.90
54272;DHT22;40184;53.362;5.216;2023-04-19T10:10:35;12.40;99.90
54272;DHT22;40184;53.362;5.216;2023-04-19T10:13:06;12.60;99.90
54272;DHT22;40184;53.362;5.216;2023-04-19T10:15:35;12.60;99.90
54272;DHT22;40184;53.362;5.216;2023-04-19T10:18:03;12.60;99.90
54272;DHT22;40184;53.362;5.216;2023-04-19T10:20:45;12.60;99.90
54272;DHT22;40184;53.362;5.216;2023-04-19T10:23:14;12.70;99.90
54272;DHT22;40184;53.362;5.216;2023-04-19T10:25:45;12.50;99.90
54272;DHT22;40184;53.362;5.216;2023-04-19T10:28:11;12.60;99.90
54272;DHT22;40184;53.362;5.216;2023-04-19T10:30:51;12.60;99.90
54272;DHT22;40184;53.362;5.216;2023-04-19T10:33:28;12.50;99.90
54272;DHT22;40184;53.362;5.216;2023-04-19T10:35:59;12.60;99.90
54272;DHT22;40184;53.362;5.216;2023-04-19T10:38:36;12.60;99.90
54272;DHT22;40184;53.362;5.216;2023-04-19T10:41:01;12.70;99.90
54272;DHT22;40184;53.362;5.216;2023-04-19T10:43:33;12.70;99.90
54272;DHT22;40184;53.362;5.216;2023-04-19T10:48:50;12.90;99.90
54272;DHT22;40184;53.362;5.216;2023-04-19T10:51:21;13.00;99.90
54272;DHT22;40184;53.362;5.216;2023-04-19T10:53:51;12.90;99.90
54272;DHT22;40184;53.362;5.216;2023-04-19T10:56:55;12.80;99.90
54272;DHT22;40184;53.362;5.216;2023-04-19T11:01:37;13.10;99.90
54272;DHT22;40184;53.362;5.216;2023-04-19T11:04:09;13.10;99.90
54272;DHT22;40184;53.362;5.216;2023-04-19T11:06:35;13.30;99.90
54272;DHT22;40184;53.362;5.216;2023-04-19T11:09:01;13.40;99.90
54272;DHT22;40184;53.362;5.216;2023-04-19T11:11:33;13.30;99.90
54272;DHT22;40184;53.362;5.216;2023-04-19T11:14:01;13.40;99.90
54272;DHT22;40184;53.362;5.216;2023-04-19T11:16:29;13.20;99.90
54272;DHT22;40184;53.362;5.216;2023-04-19T11:18:54;13.20;99.90
54272;DHT22;40184;53.362;5.216;2023-04-19T11:21:20;13.40;99.90
54272;DHT22;40184;53.362;5.216;2023-04-19T11:23:46;13.40;99.90
54272;DHT22;40184;53.362;5.216;2023-04-19T11:26:13;13.40;99.90
54272;DHT22;40184;53.362;5.216;2023-04-19T11:28:39;13.70;99.90
54272;DHT22;40184;53.362;5.216;2023-04-19T11:31:06;13.70;99.90
54272;DHT22;40184;53.362;5.216;2023-04-19T11:33:36;13.70;99.90
54272;DHT22;40184;53.362;5.216;2023-04-19T11:36:02;13.70;99.90
54272;DHT22;40184;53.362;5.216;2023-04-19T11:38:29;13.60;99.90
54272;DHT22;40184;53.362;5.216;2023-04-19T11:41:02;13.60;99.90
54272;DHT22;40184;53.362;5.216;2023-04-19T11:43:35;13.80;99.90
54272;DHT22;40184;53.362;5.216;2023-04-19T11:46:06;13.90;99.90
54272;DHT22;40184;53.362;5.216;2023-04-19T11:48:32;13.90;99.90
54272;DHT22;40184;53.362;5.216;2023-04-19T11:50:58;13.90;99.90
54272;DHT22;40184;53.362;5.216;2023-04-19T11:53:25;13.90;99.90
54272;DHT22;40184;53.362;5.216;2023-04-19T11:56:03;13.80;99.90
54272;DHT22;40184;53.362;5.216;2023-04-19T11:58:37;13.70;99.90
54272;DHT22;40184;53.362;5.216;2023-04-19T12:01:04;13.80;99.90
54272;DHT22;40184;53.362;5.216;2023-04-19T12:03:31;13.70;99.90
54272;DHT22;40184;53.362;5.216;2023-04-19T12:05:59;14.00;99.90
54272;DHT22;40184;53.362;5.216;2023-04-19T12:08:35;13.90;99.90
54272;DHT22;40184;53.362;5.216;2023-04-19T12:11:02;13.90;99.90
54272;DHT22;40184;53.362;5.216;2023-04-19T12:13:28;14.00;99.90
54272;DHT22;40184;53.362;5.216;2023-04-19T12:15:55;14.10;99.90
54272;DHT22;40184;53.362;5.216;2023-04-19T12:18:21;14.00;99.90
54272;DHT22;40184;53.362;5.216;2023-04-19T12:20:48;14.20;99.90
54272;DHT22;40184;53.362;5.216;2023-04-19T12:23:16;14.00;99.90
54272;DHT22;40184;53.362;5.216;2023-04-19T12:25:44;14.00;99.90
54272;DHT22;40184;53.362;5.216;2023-04-19T12:28:11;13.90;99.90
54272;DHT22;40184;53.362;5.216;2023-04-19T12:30:37;14.10;99.90
54272;DHT22;40184;53.362;5.216;2023-04-19T12:33:03;13.80;99.90
54272;DHT22;40184;53.362;5.216;2023-04-19T12:35:30;13.90;99.90
54272;DHT22;40184;53.362;5.216;2023-04-19T12:37:57;14.00;99.90
54272;DHT22;40184;53.362;5.216;2023-04-19T12:40:24;14.10;99.90
54272;DHT22;40184;53.362;5.216;2023-04-19T12:42:50;14.30;99.90
54272;DHT22;40184;53.362;5.216;2023-04-19T12:45:18;14.50;99.90
54272;DHT22;40184;53.362;5.216;2023-04-19T12:47:44;14.50;99.90
54272;DHT22;40184;53.362;5.216;2023-04-19T12:50:12;14.50;99.90
54272;DHT22;40184;53.362;5.216;2023-04-19T12:52:39;14.40;99.90
54272;DHT22;40184;53.362;5.216;2023-04-19T12:55:05;14.50;99.90
54272;DHT22;40184;53.362;5.216;2023-04-19T12:57:31;14.40;99.90
54272;DHT22;40184;53.362;5.216;2023-04-19T12:59:57;14.40;99.90
54272;DHT22;40184;53.362;5.216;2023-04-19T13:02:23;14.40;99.90
54272;DHT22;40184;53.362;5.216;2023-04-19T13:04:49;14.50;99.90
54272;DHT22;40184;53.362;5.216;2023-04-19T13:07:15;14.50;99.90
54272;DHT22;40184;53.362;5.216;2023-04-19T13:09:41;14.40;99.90
54272;DHT22;40184;53.362;5.216;2023-04-19T13:12:07;14.60;99.90
54272;DHT22;40184;53.362;5.216;2023-04-19T13:14:32;14.70;99.90
54272;DHT22;40184;53.362;5.216;2023-04-19T13:16:58;14.80;99.90
54272;DHT22;40184;53.362;5.216;2023-04-19T13:19:24;15.00;99.90
54272;DHT22;40184;53.362;5.216;2023-04-19T13:21:50;15.20;99.90
54272;DHT22;40184;53.362;5.216;2023-04-19T13:24:15;15.20;99.90
54272;DHT22;40184;53.362;5.216;2023-04-19T13:26:41;15.40;99.90
54272;DHT22;40184;53.362;5.216;2023-04-19T13:29:07;15.20;99.90
54272;DHT22;40184;53.362;5.216;2023-04-19T13:31:35;15.20;99.90
54272;DHT22;40184;53.362;5.216;2023-04-19T13:34:01;15.50;99.90
54272;DHT22;40184;53.362;5.216;2023-04-19T13:36:27;16.00;99.90
54272;DHT22;40184;53.362;5.216;2023-04-19T13:38:53;16.30;99.90
54272;DHT22;40184;53.362;5.216;2023-04-19T13:41:19;16.50;99.90
54272;DHT22;40184;53.362;5.216;2023-04-19T13:43:45;16.60;99.90
54272;DHT22;40184;53.362;5.216;2023-04-19T13:46:11;17.00;99.90
54272;DHT22;40184;53.362;5.216;2023-04-19T13:48:37;17.40;99.90
54272;DHT22;40184;53.362;5.216;2023-04-19T13:51:03;17.10;99.90
54272;DHT22;40184;53.362;5.216;2023-04-19T13:53:28;17.50;99.90
54272;DHT22;40184;53.362;5.216;2023-04-19T13:55:55;17.10;99.90
54272;DHT22;40184;53.362;5.216;2023-04-19T13:58:21;17.10;99.90
54272;DHT22;40184;53.362;5.216;2023-04-19T14:00:49;17.00;99.90
54272;DHT22;40184;53.362;5.216;2023-04-19T14:03:15;17.40;99.90
54272;DHT22;40184;53.362;5.216;2023-04-19T14:05:41;17.70;99.90
54272;DHT22;40184;53.362;5.216;2023-04-19T14:08:06;17.30;99.90
54272;DHT22;40184;53.362;5.216;2023-04-19T14:10:33;16.80;99.90
54272;DHT22;40184;53.362;5.216;2023-04-19T14:12:59;17.50;99.90
54272;DHT22;40184;53.362;5.216;2023-04-19T14:15:25;17.00;99.90
54272;DHT22;40184;53.362;5.216;2023-04-19T14:17:51;16.90;99.90
54272;DHT22;40184;53.362;5.216;2023-04-19T14:20:17;17.20;99.90
54272;DHT22;40184;53.362;5.216;2023-04-19T14:22:44;17.40;99.90
54272;DHT22;40184;53.362;5.216;2023-04-19T14:25:09;17.90;99.90
54272;DHT22;40184;53.362;5.216;2023-04-19T14:27:37;17.70;99.90
54272;DHT22;40184;53.362;5.216;2023-04-19T14:30:04;17.10;99.90
54272;DHT22;40184;53.362;5.216;2023-04-19T14:32:31;16.90;99.90
54272;DHT22;40184;53.362;5.216;2023-04-19T14:34:57;17.20;99.90
54272;DHT22;40184;53.362;5.216;2023-04-19T14:37:23;17.00;99.90
54272;DHT22;40184;53.362;5.216;2023-04-19T14:39:48;17.50;99.90
54272;DHT22;40184;53.362;5.216;2023-04-19T14:42:14;17.20;99.90
54272;DHT22;40184;53.362;5.216;2023-04-19T14:44:40;17.40;99.90
54272;DHT22;40184;53.362;5.216;2023-04-19T14:47:06;17.30;99.90
54272;DHT22;40184;53.362;5.216;2023-04-19T14:49:32;17.40;99.90
54272;DHT22;40184;53.362;5.216;2023-04-19T14:51:57;17.70;99.90
54272;DHT22;40184;53.362;5.216;2023-04-19T14:54:23;18.00;99.90
54272;DHT22;40184;53.362;5.216;2023-04-19T14:56:49;18.40;99.90
54272;DHT22;40184;53.362;5.216;2023-04-19T14:59:15;18.30;99.90
54272;DHT22;40184;53.362;5.216;2023-04-19T15:01:41;18.00;99.90
54272;DHT22;40184;53.362;5.216;2023-04-19T15:04:06;17.60;99.90
54272;DHT22;40184;53.362;5.216;2023-04-19T15:06:33;17.80;99.90
54272;DHT22;40184;53.362;5.216;2023-04-19T15:08:58;17.30;99.90
54272;DHT22;40184;53.362;5.216;2023-04-19T15:11:24;16.60;99.90
54272;DHT22;40184;53.362;5.216;2023-04-19T15:13:50;16.30;99.90
54272;DHT22;40184;53.362;5.216;2023-04-19T15:16:16;16.20;99.90
54272;DHT22;40184;53.362;5.216;2023-04-19T15:18:42;16.70;99.90
54272;DHT22;40184;53.362;5.216;2023-04-19T15:21:07;17.00;99.90
54272;DHT22;40184;53.362;5.216;2023-04-19T15:23:33;17.40;99.90
54272;DHT22;40184;53.362;5.216;2023-04-19T15:25:59;17.30;99.90
54272;DHT22;40184;53.362;5.216;2023-04-19T15:28:25;16.70;99.90
54272;DHT22;40184;53.362;5.216;2023-04-19T15:30:58;16.40;99.90
54272;DHT22;40184;53.362;5.216;2023-04-19T15:33:24;16.20;99.90
54272;DHT22;40184;53.362;5.216;2023-04-19T15:35:51;15.40;99.90
54272;DHT22;40184;53.362;5.216;2023-04-19T15:38:17;14.90;99.90
54272;DHT22;40184;53.362;5.216;2023-04-19T15:40:43;14.30;99.90
54272;DHT22;40184;53.362;5.216;2023-04-19T15:43:08;14.20;99.90
54272;DHT22;40184;53.362;5.216;2023-04-19T15:45:34;13.60;99.90